sensor_id;sensor_type;location;lat;lon;timestamp;P1;durP1;ratioP1;P2;durP2;ratioP2
73136;SDS011;67767;45.636;11.756;2023-02-28T00:00:26;11.15;;;5.07;;
73136;SDS011;67767;45.636;11.756;2023-02-28T00:02:51;10.43;;;5.18;;
73136;SDS011;67767;45.636;11.756;2023-02-28T00:05:18;12.30;;;5.00;;
73136;SDS011;67767;45.636;11.756;2023-02-28T00:07:46;10.70;;;5.15;;
73136;SDS011;67767;45.636;11.756;2023-02-28T00:10:13;10.65;;;4.68;;
73136;SDS011;67767;45.636;11.756;2023-02-28T00:12:44;10.00;;;4.57;;
73136;SDS011;67767;45.636;11.756;2023-02-28T00:15:10;9.83;;;5.00;;
73136;SDS011;67767;45.636;11.756;2023-02-28T00:17:36;8.75;;;4.15;;
73136;SDS011;67767;45.636;11.756;2023-02-28T00:20:03;9.18;;;4.78;;
73136;SDS011;67767;45.636;11.756;2023-02-28T00:22:31;11.10;;;4.32;;
73136;SDS011;67767;45.636;11.756;2023-02-28T00:24:56;8.90;;;4.70;;
73136;SDS011;67767;45.636;11.756;2023-02-28T00:27:22;8.97;;;4.80;;
73136;SDS011;67767;45.636;11.756;2023-02-28T00:29:48;11.67;;;5.30;;
73136;SDS011;67767;45.636;11.756;2023-02-28T00:32:13;10.23;;;4.90;;
73136;SDS011;67767;45.636;11.756;2023-02-28T00:34:39;11.95;;;4.90;;
73136;SDS011;67767;45.636;11.756;2023-02-28T00:37:05;9.43;;;5.10;;
73136;SDS011;67767;45.636;11.756;2023-02-28T00:39:35;10.25;;;4.65;;
73136;SDS011;67767;45.636;11.756;2023-02-28T00:42:02;9.50;;;4.70;;
73136;SDS011;67767;45.636;11.756;2023-02-28T00:44:28;10.18;;;5.10;;
73136;SDS011;67767;45.636;11.756;2023-02-28T00:46:54;9.73;;;4.60;;
73136;SDS011;67767;45.636;11.756;2023-02-28T00:49:21;11.00;;;4.80;;
73136;SDS011;67767;45.636;11.756;2023-02-28T00:51:47;9.50;;;4.35;;
73136;SDS011;67767;45.636;11.756;2023-02-28T00:54:13;10.55;;;5.00;;
73136;SDS011;67767;45.636;11.756;2023-02-28T00:56:39;9.40;;;4.90;;
73136;SDS011;67767;45.636;11.756;2023-02-28T00:59:05;9.17;;;4.20;;
73136;SDS011;67767;45.636;11.756;2023-02-28T01:01:31;9.20;;;4.25;;
73136;SDS011;67767;45.636;11.756;2023-02-28T01:03:57;8.97;;;4.33;;
73136;SDS011;67767;45.636;11.756;2023-02-28T01:06:22;9.45;;;4.50;;
73136;SDS011;67767;45.636;11.756;2023-02-28T01:08:48;8.77;;;4.40;;
73136;SDS011;67767;45.636;11.756;2023-02-28T01:11:14;10.80;;;4.60;;
73136;SDS011;67767;45.636;11.756;2023-02-28T01:13:42;9.27;;;4.30;;
73136;SDS011;67767;45.636;11.756;2023-02-28T01:16:08;10.18;;;4.88;;
73136;SDS011;67767;45.636;11.756;2023-02-28T01:18:34;10.47;;;4.20;;
73136;SDS011;67767;45.636;11.756;2023-02-28T01:21:04;9.00;;;4.35;;
73136;SDS011;67767;45.636;11.756;2023-02-28T01:23:30;10.75;;;4.60;;
73136;SDS011;67767;45.636;11.756;2023-02-28T01:25:57;10.20;;;4.97;;
73136;SDS011;67767;45.636;11.756;2023-02-28T01:28:22;9.63;;;4.67;;
73136;SDS011;67767;45.636;11.756;2023-02-28T01:30:48;10.83;;;4.90;;
73136;SDS011;67767;45.636;11.756;2023-02-28T01:33:14;10.25;;;5.00;;
73136;SDS011;67767;45.636;11.756;2023-02-28T01:35:40;10.60;;;4.78;;
73136;SDS011;67767;45.636;11.756;2023-02-28T01:38:06;9.90;;;4.50;;
73136;SDS011;67767;45.636;11.756;2023-02-28T01:40:32;8.80;;;3.97;;
73136;SDS011;67767;45.636;11.756;2023-02-28T01:42:57;10.03;;;4.47;;
73136;SDS011;67767;45.636;11.756;2023-02-28T01:45:25;13.23;;;5.13;;
73136;SDS011;67767;45.636;11.756;2023-02-28T01:48:11;9.70;;;4.47;;
73136;SDS011;67767;45.636;11.756;2023-02-28T01:50:39;8.57;;;4.50;;
73136;SDS011;67767;45.636;11.756;2023-02-28T01:53:10;9.15;;;4.45;;
73136;SDS011;67767;45.636;11.756;2023-02-28T01:55:39;9.65;;;4.30;;
73136;SDS011;67767;45.636;11.756;2023-02-28T01:58:06;10.52;;;4.40;;
73136;SDS011;67767;45.636;11.756;2023-02-28T02:00:34;8.98;;;4.22;;
73136;SDS011;67767;45.636;11.756;2023-02-28T02:03:05;9.60;;;4.17;;
73136;SDS011;67767;45.636;11.756;2023-02-28T02:05:33;10.40;;;4.22;;
73136;SDS011;67767;45.636;11.756;2023-02-28T02:08:04;8.73;;;3.75;;
73136;SDS011;67767;45.636;11.756;2023-02-28T02:10:36;10.88;;;4.32;;
73136;SDS011;67767;45.636;11.756;2023-02-28T02:16:16;9.87;;;4.03;;
73136;SDS011;67767;45.636;11.756;2023-02-28T02:18:36;8.70;;;4.38;;
73136;SDS011;67767;45.636;11.756;2023-02-28T02:26:51;9.05;;;4.20;;
73136;SDS011;67767;45.636;11.756;2023-02-28T02:29:42;8.40;;;4.40;;
73136;SDS011;67767;45.636;11.756;2023-02-28T02:35:38;8.55;;;4.20;;
73136;SDS011;67767;45.636;11.756;2023-02-28T02:38:33;8.95;;;3.83;;
73136;SDS011;67767;45.636;11.756;2023-02-28T02:46:37;9.45;;;4.20;;
73136;SDS011;67767;45.636;11.756;2023-02-28T02:49:07;8.23;;;3.95;;
73136;SDS011;67767;45.636;11.756;2023-02-28T02:51:36;9.82;;;4.32;;
73136;SDS011;67767;45.636;11.756;2023-02-28T02:54:05;8.07;;;3.97;;
73136;SDS011;67767;45.636;11.756;2023-02-28T02:56:32;8.53;;;3.87;;
73136;SDS011;67767;45.636;11.756;2023-02-28T02:59:02;8.98;;;4.15;;
73136;SDS011;67767;45.636;11.756;2023-02-28T03:01:30;7.95;;;3.65;;
73136;SDS011;67767;45.636;11.756;2023-02-28T03:03:57;8.63;;;4.28;;
73136;SDS011;67767;45.636;11.756;2023-02-28T03:06:28;10.20;;;4.28;;
73136;SDS011;67767;45.636;11.756;2023-02-28T03:08:54;8.57;;;4.20;;
73136;SDS011;67767;45.636;11.756;2023-02-28T03:11:20;8.82;;;4.60;;
73136;SDS011;67767;45.636;11.756;2023-02-28T03:13:52;9.47;;;4.00;;
73136;SDS011;67767;45.636;11.756;2023-02-28T03:16:46;12.30;;;5.53;;
73136;SDS011;67767;45.636;11.756;2023-02-28T03:24:48;8.63;;;4.38;;
73136;SDS011;67767;45.636;11.756;2023-02-28T03:27:23;8.77;;;4.37;;
73136;SDS011;67767;45.636;11.756;2023-02-28T03:35:22;10.05;;;4.32;;
73136;SDS011;67767;45.636;11.756;2023-02-28T03:37:52;8.90;;;3.97;;
73136;SDS011;67767;45.636;11.756;2023-02-28T03:40:24;9.88;;;4.43;;
73136;SDS011;67767;45.636;11.756;2023-02-28T03:42:54;10.60;;;4.47;;
73136;SDS011;67767;45.636;11.756;2023-02-28T03:45:25;9.38;;;3.97;;
73136;SDS011;67767;45.636;11.756;2023-02-28T03:48:02;10.77;;;3.83;;
73136;SDS011;67767;45.636;11.756;2023-02-28T03:50:41;8.73;;;4.43;;
73136;SDS011;67767;45.636;11.756;2023-02-28T03:55:47;7.78;;;4.03;;
73136;SDS011;67767;45.636;11.756;2023-02-28T03:58:20;7.88;;;3.83;;
73136;SDS011;67767;45.636;11.756;2023-02-28T04:01:24;9.20;;;4.28;;
73136;SDS011;67767;45.636;11.756;2023-02-28T04:03:55;11.10;;;4.30;;
73136;SDS011;67767;45.636;11.756;2023-02-28T04:06:21;9.25;;;4.25;;
73136;SDS011;67767;45.636;11.756;2023-02-28T04:08:48;10.30;;;4.20;;
73136;SDS011;67767;45.636;11.756;2023-02-28T04:13:54;9.53;;;4.23;;
73136;SDS011;67767;45.636;11.756;2023-02-28T04:16:19;9.90;;;3.70;;
73136;SDS011;67767;45.636;11.756;2023-02-28T04:18:45;9.30;;;4.07;;
73136;SDS011;67767;45.636;11.756;2023-02-28T04:21:11;9.02;;;3.92;;
73136;SDS011;67767;45.636;11.756;2023-02-28T04:23:38;9.60;;;3.97;;
73136;SDS011;67767;45.636;11.756;2023-02-28T04:26:03;10.70;;;4.47;;
73136;SDS011;67767;45.636;11.756;2023-02-28T04:28:30;8.90;;;4.13;;
73136;SDS011;67767;45.636;11.756;2023-02-28T04:30:57;10.18;;;4.18;;
73136;SDS011;67767;45.636;11.756;2023-02-28T04:33:28;9.60;;;4.00;;
73136;SDS011;67767;45.636;11.756;2023-02-28T04:35:59;10.45;;;4.38;;
73136;SDS011;67767;45.636;11.756;2023-02-28T04:38:29;9.30;;;4.38;;
73136;SDS011;67767;45.636;11.756;2023-02-28T04:40:58;9.45;;;4.07;;
73136;SDS011;67767;45.636;11.756;2023-02-28T04:43:25;9.02;;;4.72;;
73136;SDS011;67767;45.636;11.756;2023-02-28T04:45:51;11.60;;;4.87;;
73136;SDS011;67767;45.636;11.756;2023-02-28T04:48:17;11.73;;;4.55;;
73136;SDS011;67767;45.636;11.756;2023-02-28T04:50:42;9.87;;;4.57;;
73136;SDS011;67767;45.636;11.756;2023-02-28T04:53:08;11.63;;;5.10;;
73136;SDS011;67767;45.636;11.756;2023-02-28T04:55:34;9.27;;;4.27;;
73136;SDS011;67767;45.636;11.756;2023-02-28T04:57:59;9.32;;;4.72;;
73136;SDS011;67767;45.636;11.756;2023-02-28T05:00:25;9.33;;;4.80;;
73136;SDS011;67767;45.636;11.756;2023-02-28T05:02:51;12.32;;;5.15;;
73136;SDS011;67767;45.636;11.756;2023-02-28T05:05:16;9.40;;;4.63;;
73136;SDS011;67767;45.636;11.756;2023-02-28T05:07:43;11.45;;;5.90;;
73136;SDS011;67767;45.636;11.756;2023-02-28T05:10:10;14.43;;;5.68;;
73136;SDS011;67767;45.636;11.756;2023-02-28T05:12:36;11.75;;;5.60;;
73136;SDS011;67767;45.636;11.756;2023-02-28T05:15:02;10.40;;;4.67;;
73136;SDS011;67767;45.636;11.756;2023-02-28T05:17:29;10.85;;;5.40;;
73136;SDS011;67767;45.636;11.756;2023-02-28T05:19:55;11.00;;;5.25;;
73136;SDS011;67767;45.636;11.756;2023-02-28T05:22:21;9.80;;;5.10;;
73136;SDS011;67767;45.636;11.756;2023-02-28T05:24:47;15.68;;;6.10;;
73136;SDS011;67767;45.636;11.756;2023-02-28T05:27:12;11.23;;;5.30;;
73136;SDS011;67767;45.636;11.756;2023-02-28T05:29:38;8.98;;;4.95;;
73136;SDS011;67767;45.636;11.756;2023-02-28T05:32:10;12.13;;;4.93;;
73136;SDS011;67767;45.636;11.756;2023-02-28T05:34:37;11.27;;;4.50;;
73136;SDS011;67767;45.636;11.756;2023-02-28T05:37:03;9.73;;;4.95;;
73136;SDS011;67767;45.636;11.756;2023-02-28T05:39:29;10.60;;;5.13;;
73136;SDS011;67767;45.636;11.756;2023-02-28T05:41:55;15.43;;;6.23;;
73136;SDS011;67767;45.636;11.756;2023-02-28T05:44:20;13.67;;;5.20;;
73136;SDS011;67767;45.636;11.756;2023-02-28T05:46:46;13.27;;;5.27;;
73136;SDS011;67767;45.636;11.756;2023-02-28T05:49:12;12.93;;;5.32;;
73136;SDS011;67767;45.636;11.756;2023-02-28T05:51:37;12.63;;;6.13;;
73136;SDS011;67767;45.636;11.756;2023-02-28T05:54:05;10.57;;;5.57;;
73136;SDS011;67767;45.636;11.756;2023-02-28T05:56:31;12.20;;;5.82;;
73136;SDS011;67767;45.636;11.756;2023-02-28T05:58:59;13.10;;;5.03;;
73136;SDS011;67767;45.636;11.756;2023-02-28T06:04:00;11.60;;;4.95;;
73136;SDS011;67767;45.636;11.756;2023-02-28T06:06:26;12.48;;;5.95;;
73136;SDS011;67767;45.636;11.756;2023-02-28T06:08:52;14.35;;;5.75;;
73136;SDS011;67767;45.636;11.756;2023-02-28T06:11:18;13.73;;;6.40;;
73136;SDS011;67767;45.636;11.756;2023-02-28T06:13:45;13.77;;;5.97;;
73136;SDS011;67767;45.636;11.756;2023-02-28T06:16:11;12.82;;;6.63;;
73136;SDS011;67767;45.636;11.756;2023-02-28T06:18:37;12.97;;;6.43;;
73136;SDS011;67767;45.636;11.756;2023-02-28T06:21:02;12.45;;;6.40;;
73136;SDS011;67767;45.636;11.756;2023-02-28T06:23:28;18.00;;;8.98;;
73136;SDS011;67767;45.636;11.756;2023-02-28T06:25:54;16.73;;;8.77;;
73136;SDS011;67767;45.636;11.756;2023-02-28T06:28:23;17.20;;;8.65;;
73136;SDS011;67767;45.636;11.756;2023-02-28T06:30:50;15.63;;;6.95;;
73136;SDS011;67767;45.636;11.756;2023-02-28T06:33:16;14.77;;;8.05;;
73136;SDS011;67767;45.636;11.756;2023-02-28T06:35:46;15.60;;;6.43;;
73136;SDS011;67767;45.636;11.756;2023-02-28T06:38:13;15.35;;;6.63;;
73136;SDS011;67767;45.636;11.756;2023-02-28T06:40:38;12.97;;;6.20;;
73136;SDS011;67767;45.636;11.756;2023-02-28T06:43:04;18.10;;;7.30;;
73136;SDS011;67767;45.636;11.756;2023-02-28T06:45:30;15.37;;;7.50;;
73136;SDS011;67767;45.636;11.756;2023-02-28T06:47:55;14.70;;;6.47;;
73136;SDS011;67767;45.636;11.756;2023-02-28T06:50:21;13.17;;;6.17;;
73136;SDS011;67767;45.636;11.756;2023-02-28T06:52:47;16.80;;;6.60;;
73136;SDS011;67767;45.636;11.756;2023-02-28T06:55:13;13.20;;;6.20;;
73136;SDS011;67767;45.636;11.756;2023-02-28T06:57:39;15.32;;;7.32;;
73136;SDS011;67767;45.636;11.756;2023-02-28T07:00:07;14.03;;;8.20;;
73136;SDS011;67767;45.636;11.756;2023-02-28T07:02:34;11.65;;;5.85;;
73136;SDS011;67767;45.636;11.756;2023-02-28T07:05:01;14.55;;;6.55;;
73136;SDS011;67767;45.636;11.756;2023-02-28T07:07:26;17.10;;;7.70;;
73136;SDS011;67767;45.636;11.756;2023-02-28T07:09:52;15.67;;;6.77;;
73136;SDS011;67767;45.636;11.756;2023-02-28T07:12:18;16.73;;;7.23;;
73136;SDS011;67767;45.636;11.756;2023-02-28T07:14:43;15.95;;;6.80;;
73136;SDS011;67767;45.636;11.756;2023-02-28T07:17:09;13.93;;;5.47;;
73136;SDS011;67767;45.636;11.756;2023-02-28T07:19:37;13.98;;;5.85;;
73136;SDS011;67767;45.636;11.756;2023-02-28T07:22:03;13.05;;;5.28;;
73136;SDS011;67767;45.636;11.756;2023-02-28T07:24:29;12.85;;;5.20;;
73136;SDS011;67767;45.636;11.756;2023-02-28T07:26:55;12.43;;;5.43;;
73136;SDS011;67767;45.636;11.756;2023-02-28T07:29:21;11.93;;;4.82;;
73136;SDS011;67767;45.636;11.756;2023-02-28T07:31:47;12.07;;;5.45;;
73136;SDS011;67767;45.636;11.756;2023-02-28T07:34:13;10.83;;;4.37;;
73136;SDS011;67767;45.636;11.756;2023-02-28T07:36:39;10.88;;;4.93;;
73136;SDS011;67767;45.636;11.756;2023-02-28T07:39:05;11.05;;;4.88;;
73136;SDS011;67767;45.636;11.756;2023-02-28T07:41:31;11.27;;;4.80;;
73136;SDS011;67767;45.636;11.756;2023-02-28T07:43:59;12.07;;;5.07;;
73136;SDS011;67767;45.636;11.756;2023-02-28T07:46:25;12.07;;;5.80;;
73136;SDS011;67767;45.636;11.756;2023-02-28T07:48:51;11.05;;;4.43;;
73136;SDS011;67767;45.636;11.756;2023-02-28T07:51:18;13.03;;;5.07;;
73136;SDS011;67767;45.636;11.756;2023-02-28T07:53:44;11.93;;;5.05;;
73136;SDS011;67767;45.636;11.756;2023-02-28T07:56:09;13.07;;;5.33;;
73136;SDS011;67767;45.636;11.756;2023-02-28T07:58:35;15.10;;;5.60;;
73136;SDS011;67767;45.636;11.756;2023-02-28T08:01:08;11.70;;;5.32;;
73136;SDS011;67767;45.636;11.756;2023-02-28T08:03:35;12.32;;;5.28;;
73136;SDS011;67767;45.636;11.756;2023-02-28T08:06:05;10.03;;;4.57;;
73136;SDS011;67767;45.636;11.756;2023-02-28T08:08:31;10.27;;;4.35;;
73136;SDS011;67767;45.636;11.756;2023-02-28T08:10:58;9.27;;;4.03;;
73136;SDS011;67767;45.636;11.756;2023-02-28T08:13:25;12.00;;;4.78;;
73136;SDS011;67767;45.636;11.756;2023-02-28T08:15:55;10.33;;;5.17;;
73136;SDS011;67767;45.636;11.756;2023-02-28T08:18:21;10.82;;;4.72;;
73136;SDS011;67767;45.636;11.756;2023-02-28T08:20:47;11.63;;;4.38;;
73136;SDS011;67767;45.636;11.756;2023-02-28T08:23:13;10.10;;;4.57;;
73136;SDS011;67767;45.636;11.756;2023-02-28T08:25:39;11.90;;;5.20;;
73136;SDS011;67767;45.636;11.756;2023-02-28T08:28:04;9.45;;;4.57;;
73136;SDS011;67767;45.636;11.756;2023-02-28T08:30:30;12.10;;;5.00;;
73136;SDS011;67767;45.636;11.756;2023-02-28T08:32:56;13.57;;;5.47;;
73136;SDS011;67767;45.636;11.756;2023-02-28T08:35:22;13.35;;;5.30;;
73136;SDS011;67767;45.636;11.756;2023-02-28T08:37:48;15.27;;;5.00;;
73136;SDS011;67767;45.636;11.756;2023-02-28T08:40:14;9.30;;;4.60;;
73136;SDS011;67767;45.636;11.756;2023-02-28T08:42:47;10.75;;;4.80;;
73136;SDS011;67767;45.636;11.756;2023-02-28T08:45:13;12.75;;;5.30;;
73136;SDS011;67767;45.636;11.756;2023-02-28T08:47:39;13.25;;;5.85;;
73136;SDS011;67767;45.636;11.756;2023-02-28T08:50:06;13.03;;;5.30;;
73136;SDS011;67767;45.636;11.756;2023-02-28T08:52:32;12.02;;;5.35;;
73136;SDS011;67767;45.636;11.756;2023-02-28T08:54:58;11.98;;;5.25;;
73136;SDS011;67767;45.636;11.756;2023-02-28T08:57:24;11.07;;;4.75;;
73136;SDS011;67767;45.636;11.756;2023-02-28T08:59:53;16.87;;;7.83;;
73136;SDS011;67767;45.636;11.756;2023-02-28T09:02:19;13.15;;;5.88;;
73136;SDS011;67767;45.636;11.756;2023-02-28T09:04:45;11.75;;;5.80;;
73136;SDS011;67767;45.636;11.756;2023-02-28T09:07:11;8.50;;;3.60;;
73136;SDS011;67767;45.636;11.756;2023-02-28T09:09:37;9.68;;;4.82;;
73136;SDS011;67767;45.636;11.756;2023-02-28T09:12:02;12.52;;;4.90;;
73136;SDS011;67767;45.636;11.756;2023-02-28T09:14:29;14.93;;;4.82;;
73136;SDS011;67767;45.636;11.756;2023-02-28T09:16:54;11.63;;;4.90;;
73136;SDS011;67767;45.636;11.756;2023-02-28T09:19:20;12.85;;;5.32;;
73136;SDS011;67767;45.636;11.756;2023-02-28T09:21:47;11.80;;;5.18;;
73136;SDS011;67767;45.636;11.756;2023-02-28T09:24:12;12.37;;;4.90;;
73136;SDS011;67767;45.636;11.756;2023-02-28T09:26:40;13.88;;;5.55;;
73136;SDS011;67767;45.636;11.756;2023-02-28T09:29:06;10.48;;;4.40;;
73136;SDS011;67767;45.636;11.756;2023-02-28T09:31:31;15.47;;;6.10;;
73136;SDS011;67767;45.636;11.756;2023-02-28T09:33:57;10.88;;;4.57;;
73136;SDS011;67767;45.636;11.756;2023-02-28T09:36:24;11.48;;;4.97;;
73136;SDS011;67767;45.636;11.756;2023-02-28T09:38:51;11.38;;;4.90;;
73136;SDS011;67767;45.636;11.756;2023-02-28T09:41:24;12.17;;;4.90;;
73136;SDS011;67767;45.636;11.756;2023-02-28T09:43:56;14.77;;;5.05;;
73136;SDS011;67767;45.636;11.756;2023-02-28T09:46:36;10.73;;;5.25;;
73136;SDS011;67767;45.636;11.756;2023-02-28T09:49:11;13.82;;;4.70;;
73136;SDS011;67767;45.636;11.756;2023-02-28T09:54:26;12.27;;;5.63;;
73136;SDS011;67767;45.636;11.756;2023-02-28T10:05:11;13.68;;;5.13;;
73136;SDS011;67767;45.636;11.756;2023-02-28T10:10:24;11.70;;;4.93;;
73136;SDS011;67767;45.636;11.756;2023-02-28T10:12:55;15.45;;;6.00;;
73136;SDS011;67767;45.636;11.756;2023-02-28T10:15:25;12.15;;;3.97;;
73136;SDS011;67767;45.636;11.756;2023-02-28T10:17:55;10.90;;;5.32;;
73136;SDS011;67767;45.636;11.756;2023-02-28T10:20:24;11.60;;;5.00;;
73136;SDS011;67767;45.636;11.756;2023-02-28T10:23:02;11.32;;;5.03;;
73136;SDS011;67767;45.636;11.756;2023-02-28T10:25:46;12.93;;;5.70;;
73136;SDS011;67767;45.636;11.756;2023-02-28T10:28:17;10.68;;;4.40;;
73136;SDS011;67767;45.636;11.756;2023-02-28T10:30:44;11.27;;;4.90;;
73136;SDS011;67767;45.636;11.756;2023-02-28T10:33:17;12.63;;;5.13;;
73136;SDS011;67767;45.636;11.756;2023-02-28T10:35:55;11.63;;;5.45;;
73136;SDS011;67767;45.636;11.756;2023-02-28T10:38:26;11.10;;;4.83;;
73136;SDS011;67767;45.636;11.756;2023-02-28T10:41:03;10.80;;;4.73;;
73136;SDS011;67767;45.636;11.756;2023-02-28T10:43:31;12.80;;;4.65;;
73136;SDS011;67767;45.636;11.756;2023-02-28T10:46:09;11.25;;;4.97;;
73136;SDS011;67767;45.636;11.756;2023-02-28T10:48:59;11.60;;;4.57;;
73136;SDS011;67767;45.636;11.756;2023-02-28T10:51:33;10.17;;;3.80;;
73136;SDS011;67767;45.636;11.756;2023-02-28T10:54:01;11.77;;;4.45;;
73136;SDS011;67767;45.636;11.756;2023-02-28T10:56:28;12.00;;;4.30;;
73136;SDS011;67767;45.636;11.756;2023-02-28T11:01:47;12.50;;;4.37;;
73136;SDS011;67767;45.636;11.756;2023-02-28T11:07:14;10.55;;;4.40;;
73136;SDS011;67767;45.636;11.756;2023-02-28T11:09:49;10.93;;;4.35;;
73136;SDS011;67767;45.636;11.756;2023-02-28T11:15:01;11.13;;;4.50;;
73136;SDS011;67767;45.636;11.756;2023-02-28T11:17:58;11.23;;;4.70;;
73136;SDS011;67767;45.636;11.756;2023-02-28T11:20:25;7.68;;;3.80;;
73136;SDS011;67767;45.636;11.756;2023-02-28T11:22:54;8.23;;;4.20;;
73136;SDS011;67767;45.636;11.756;2023-02-28T11:25:26;11.55;;;4.93;;
73136;SDS011;67767;45.636;11.756;2023-02-28T11:27:58;9.47;;;4.73;;
73136;SDS011;67767;45.636;11.756;2023-02-28T11:33:18;13.40;;;4.50;;
73136;SDS011;67767;45.636;11.756;2023-02-28T11:35:49;11.20;;;5.30;;
73136;SDS011;67767;45.636;11.756;2023-02-28T11:38:16;10.70;;;4.60;;
73136;SDS011;67767;45.636;11.756;2023-02-28T11:40:43;10.50;;;4.77;;
73136;SDS011;67767;45.636;11.756;2023-02-28T11:46:30;14.73;;;7.78;;
73136;SDS011;67767;45.636;11.756;2023-02-28T11:49:19;13.10;;;5.40;;
73136;SDS011;67767;45.636;11.756;2023-02-28T12:05:33;9.80;;;4.85;;
73136;SDS011;67767;45.636;11.756;2023-02-28T12:08:16;10.02;;;4.60;;
73136;SDS011;67767;45.636;11.756;2023-02-28T12:19:21;9.50;;;4.25;;
73136;SDS011;67767;45.636;11.756;2023-02-28T12:27:47;8.00;;;4.20;;
73136;SDS011;67767;45.636;11.756;2023-02-28T12:30:24;10.32;;;4.75;;
73136;SDS011;67767;45.636;11.756;2023-02-28T12:32:55;8.10;;;4.28;;
73136;SDS011;67767;45.636;11.756;2023-02-28T12:35:33;9.20;;;4.30;;
73136;SDS011;67767;45.636;11.756;2023-02-28T12:38:14;11.38;;;4.10;;
73136;SDS011;67767;45.636;11.756;2023-02-28T12:43:17;8.32;;;4.07;;
73136;SDS011;67767;45.636;11.756;2023-02-28T12:45:49;9.98;;;4.53;;
73136;SDS011;67767;45.636;11.756;2023-02-28T12:48:29;9.85;;;4.50;;
73136;SDS011;67767;45.636;11.756;2023-02-28T12:51:01;8.13;;;4.03;;
73136;SDS011;67767;45.636;11.756;2023-02-28T12:53:31;8.87;;;4.60;;
73136;SDS011;67767;45.636;11.756;2023-02-28T12:56:17;8.68;;;4.50;;
73136;SDS011;67767;45.636;11.756;2023-02-28T13:05:02;10.40;;;4.57;;
73136;SDS011;67767;45.636;11.756;2023-02-28T13:10:21;8.13;;;4.20;;
73136;SDS011;67767;45.636;11.756;2023-02-28T13:12:51;9.88;;;4.65;;
73136;SDS011;67767;45.636;11.756;2023-02-28T13:15:25;9.48;;;4.70;;
73136;SDS011;67767;45.636;11.756;2023-02-28T13:17:55;8.90;;;4.27;;
73136;SDS011;67767;45.636;11.756;2023-02-28T13:22:53;12.35;;;5.40;;
73136;SDS011;67767;45.636;11.756;2023-02-28T13:28:10;11.15;;;5.10;;
73136;SDS011;67767;45.636;11.756;2023-02-28T13:38:42;9.80;;;4.50;;
73136;SDS011;67767;45.636;11.756;2023-02-28T13:46:32;8.07;;;4.53;;
73136;SDS011;67767;45.636;11.756;2023-02-28T13:51:55;9.07;;;4.40;;
73136;SDS011;67767;45.636;11.756;2023-02-28T13:57:33;10.33;;;4.73;;
73136;SDS011;67767;45.636;11.756;2023-02-28T14:05:15;10.15;;;5.00;;
73136;SDS011;67767;45.636;11.756;2023-02-28T14:07:50;9.80;;;4.40;;
73136;SDS011;67767;45.636;11.756;2023-02-28T14:10:41;11.15;;;5.15;;
73136;SDS011;67767;45.636;11.756;2023-02-28T14:13:12;10.82;;;4.90;;
73136;SDS011;67767;45.636;11.756;2023-02-28T14:15:45;9.10;;;4.63;;
73136;SDS011;67767;45.636;11.756;2023-02-28T14:18:18;9.30;;;4.30;;
73136;SDS011;67767;45.636;11.756;2023-02-28T14:20:52;8.30;;;4.70;;
73136;SDS011;67767;45.636;11.756;2023-02-28T14:29:08;12.05;;;7.43;;
73136;SDS011;67767;45.636;11.756;2023-02-28T14:37:30;9.30;;;4.63;;
73136;SDS011;67767;45.636;11.756;2023-02-28T14:39:59;9.00;;;4.45;;
73136;SDS011;67767;45.636;11.756;2023-02-28T14:42:36;10.35;;;5.10;;
73136;SDS011;67767;45.636;11.756;2023-02-28T14:45:19;11.65;;;5.28;;
73136;SDS011;67767;45.636;11.756;2023-02-28T14:47:45;10.13;;;4.80;;
73136;SDS011;67767;45.636;11.756;2023-02-28T14:50:47;13.73;;;4.85;;
73136;SDS011;67767;45.636;11.756;2023-02-28T14:53:04;10.10;;;3.78;;
73136;SDS011;67767;45.636;11.756;2023-02-28T14:55:43;10.40;;;4.85;;
73136;SDS011;67767;45.636;11.756;2023-02-28T15:00:52;11.87;;;5.03;;
73136;SDS011;67767;45.636;11.756;2023-02-28T15:03:30;11.05;;;5.13;;
73136;SDS011;67767;45.636;11.756;2023-02-28T15:06:12;10.77;;;4.45;;
73136;SDS011;67767;45.636;11.756;2023-02-28T15:08:39;8.60;;;4.30;;
73136;SDS011;67767;45.636;11.756;2023-02-28T15:11:12;11.80;;;4.10;;
73136;SDS011;67767;45.636;11.756;2023-02-28T15:13:47;12.45;;;8.30;;
73136;SDS011;67767;45.636;11.756;2023-02-28T15:16:16;9.88;;;4.50;;
73136;SDS011;67767;45.636;11.756;2023-02-28T15:18:55;10.27;;;4.88;;
73136;SDS011;67767;45.636;11.756;2023-02-28T15:21:37;10.35;;;4.60;;
73136;SDS011;67767;45.636;11.756;2023-02-28T15:26:53;15.27;;;6.38;;
73136;SDS011;67767;45.636;11.756;2023-02-28T15:29:23;11.10;;;4.68;;
73136;SDS011;67767;45.636;11.756;2023-02-28T15:31:52;10.75;;;4.38;;
73136;SDS011;67767;45.636;11.756;2023-02-28T15:34:34;9.73;;;4.43;;
73136;SDS011;67767;45.636;11.756;2023-02-28T15:37:00;9.67;;;4.73;;
73136;SDS011;67767;45.636;11.756;2023-02-28T15:39:27;10.25;;;4.30;;
73136;SDS011;67767;45.636;11.756;2023-02-28T15:42:09;9.45;;;4.50;;
73136;SDS011;67767;45.636;11.756;2023-02-28T15:44:42;19.00;;;4.78;;
73136;SDS011;67767;45.636;11.756;2023-02-28T15:47:27;10.67;;;4.90;;
73136;SDS011;67767;45.636;11.756;2023-02-28T15:50:00;13.30;;;5.28;;
73136;SDS011;67767;45.636;11.756;2023-02-28T15:52:43;11.15;;;4.57;;
73136;SDS011;67767;45.636;11.756;2023-02-28T15:55:20;10.95;;;4.40;;
73136;SDS011;67767;45.636;11.756;2023-02-28T15:57:53;10.20;;;4.50;;
73136;SDS011;67767;45.636;11.756;2023-02-28T16:00:24;10.00;;;4.33;;
73136;SDS011;67767;45.636;11.756;2023-02-28T16:02:52;14.60;;;4.70;;
73136;SDS011;67767;45.636;11.756;2023-02-28T16:07:56;11.53;;;4.40;;
73136;SDS011;67767;45.636;11.756;2023-02-28T16:10:26;10.05;;;4.47;;
73136;SDS011;67767;45.636;11.756;2023-02-28T16:12:54;10.23;;;4.28;;
73136;SDS011;67767;45.636;11.756;2023-02-28T16:17:47;12.33;;;4.57;;
73136;SDS011;67767;45.636;11.756;2023-02-28T16:22:50;10.93;;;4.63;;
73136;SDS011;67767;45.636;11.756;2023-02-28T16:25:18;9.30;;;4.40;;
73136;SDS011;67767;45.636;11.756;2023-02-28T16:27:47;14.75;;;5.60;;
73136;SDS011;67767;45.636;11.756;2023-02-28T16:30:17;15.03;;;5.23;;
73136;SDS011;67767;45.636;11.756;2023-02-28T16:32:49;11.23;;;4.95;;
73136;SDS011;67767;45.636;11.756;2023-02-28T16:35:15;13.70;;;4.50;;
73136;SDS011;67767;45.636;11.756;2023-02-28T16:37:42;10.82;;;4.97;;
73136;SDS011;67767;45.636;11.756;2023-02-28T16:40:13;13.07;;;8.38;;
73136;SDS011;67767;45.636;11.756;2023-02-28T16:42:40;12.67;;;5.47;;
73136;SDS011;67767;45.636;11.756;2023-02-28T16:45:06;12.27;;;5.53;;
73136;SDS011;67767;45.636;11.756;2023-02-28T16:47:36;11.65;;;4.93;;
73136;SDS011;67767;45.636;11.756;2023-02-28T16:50:05;16.17;;;6.40;;
73136;SDS011;67767;45.636;11.756;2023-02-28T16:52:38;16.50;;;6.90;;
73136;SDS011;67767;45.636;11.756;2023-02-28T16:55:03;16.08;;;6.60;;
73136;SDS011;67767;45.636;11.756;2023-02-28T16:57:29;15.70;;;6.80;;
73136;SDS011;67767;45.636;11.756;2023-02-28T16:59:55;17.53;;;6.77;;
73136;SDS011;67767;45.636;11.756;2023-02-28T17:02:21;13.63;;;6.00;;
73136;SDS011;67767;45.636;11.756;2023-02-28T17:04:46;13.13;;;6.20;;
73136;SDS011;67767;45.636;11.756;2023-02-28T17:07:13;16.25;;;6.65;;
73136;SDS011;67767;45.636;11.756;2023-02-28T17:09:41;13.93;;;6.20;;
73136;SDS011;67767;45.636;11.756;2023-02-28T17:12:07;20.00;;;7.97;;
73136;SDS011;67767;45.636;11.756;2023-02-28T17:14:33;19.23;;;8.30;;
73136;SDS011;67767;45.636;11.756;2023-02-28T17:16:59;17.42;;;7.22;;